Time;durP1;ratioP1;P1;durP2;ratioP2;P2;SDS_P1;SDS_P2;PMS_P1;PMS_P2;Temp;Humidity;BMP_temperature;BMP_pressure;BME280_temperature;BME280_humidity;BME280_pressure;Samples;Min_cycle;Max_cycle;Signal;HPM_P1;HPM_P2
2023/02/21 02:17:43;;;;;;;;;;;;;;;19.35;37.58;96019.56;10429007;28;3399;-54
2023/02/21 02:22:50;;;;;;;;;;;;;;;19.33;37.43;96016.41;10425301;28;2590;-55
2023/02/21 02:28:00;;;;;;;;;;;;;;;19.32;37.37;96014.81;10418239;28;2571;-53
2023/02/21 02:33:23;;;;;;;;;;;;;;;19.33;37.40;96013.78;10399619;28;2593;-52
2023/02/21 02:38:36;;;;;;;;;;;;;;;19.31;37.32;96007.97;10423053;28;2959;-55
2023/02/21 02:43:42;;;;;;;;;;;;;;;19.29;37.41;96007.44;10398339;28;3022;-53
2023/02/21 02:48:43;;;;;;;;;;;;;;;19.28;37.46;95998.00;10409714;28;2610;-54
2023/02/21 02:53:43;;;;;;;;;;;;;;;19.29;37.27;96001.38;10423467;28;3308;-53
2023/02/21 02:58:51;;;;;;;;;;;;;;;19.28;37.20;95994.56;10424134;28;3254;-51
2023/02/21 03:04:05;;;;;;;;;;;;;;;19.28;37.18;95999.81;10403893;28;3025;-54
2023/02/21 03:09:08;;;;;;;;;;;;;;;19.25;37.18;95995.88;10424270;28;2581;-53
2023/02/21 03:14:12;;;;;;;;;;;;;;;19.26;37.26;96005.34;10440740;28;3186;-51
2023/02/21 03:19:13;;;;;;;;;;;;;;;19.24;37.21;95998.75;10425524;28;2719;-55
2023/02/21 03:24:13;;;;;;;;;;;;;;;19.24;37.08;95998.75;10433447;28;3009;-53
2023/02/21 03:29:14;;;;;;;;;;;;;;;19.22;37.06;95999.03;10466721;28;3058;-55
2023/02/21 03:34:14;;;;;;;;;;;;;;;19.22;36.98;96006.91;10472639;28;3317;-53
2023/02/21 03:39:14;;;;;;;;;;;;;;;19.21;36.86;96005.31;10468153;28;3331;-54
2023/02/21 03:44:15;;;;;;;;;;;;;;;19.20;37.06;96005.56;10468621;28;2958;-55
2023/02/21 03:49:15;;;;;;;;;;;;;;;19.20;36.98;96014.25;10468479;28;2598;-54
2023/02/21 03:54:15;;;;;;;;;;;;;;;19.19;36.96;96006.59;10465510;28;2591;-51
2023/02/21 03:59:15;;;;;;;;;;;;;;;19.19;36.90;96007.41;10467890;28;3350;-49
2023/02/21 04:04:16;;;;;;;;;;;;;;;19.17;36.80;96001.63;10458664;28;3389;-54
2023/02/21 04:09:16;;;;;;;;;;;;;;;19.17;36.89;96006.06;10460410;28;3239;-52
2023/02/21 04:14:16;;;;;;;;;;;;;;;19.14;36.92;96004.78;10468819;28;2965;-52
2023/02/21 04:19:17;;;;;;;;;;;;;;;19.14;36.82;96009.25;10468067;28;3279;-54
2023/02/21 04:24:17;;;;;;;;;;;;;;;19.14;36.72;95999.53;10436143;28;2498;-52
2023/02/21 04:29:17;;;;;;;;;;;;;;;19.12;36.69;95993.75;10421464;28;2970;-55
2023/02/21 04:34:17;;;;;;;;;;;;;;;19.12;37.00;95985.84;10432565;28;3069;-54
2023/02/21 04:39:18;;;;;;;;;;;;;;;19.11;36.69;95986.88;10430360;28;3278;-52
2023/02/21 04:44:18;;;;;;;;;;;;;;;19.11;36.63;95988.72;10423443;28;3242;-52
2023/02/21 04:49:18;;;;;;;;;;;;;;;19.09;36.69;95986.34;10429793;28;2562;-52
2023/02/21 04:54:18;;;;;;;;;;;;;;;19.09;36.60;95975.84;10423254;28;3189;-54
2023/02/21 04:59:19;;;;;;;;;;;;;;;19.08;36.58;95963.75;10422291;28;3375;-52
2023/02/21 05:04:19;;;;;;;;;;;;;;;19.07;36.65;95970.06;10426951;28;2578;-55
2023/02/21 05:09:19;;;;;;;;;;;;;;;19.08;36.64;95969.00;10420127;28;2672;-53
2023/02/21 05:14:19;;;;;;;;;;;;;;;19.11;36.64;95960.63;10421587;28;2734;-53
2023/02/21 05:19:26;;;;;;;;;;;;;;;19.19;36.60;95959.31;10407146;28;3097;-56
2023/02/21 05:24:27;;;;;;;;;;;;;;;19.23;36.64;95955.91;10423641;28;2625;-55
2023/02/21 05:29:27;;;;;;;;;;;;;;;19.32;36.54;95959.63;10397959;28;3054;-53
2023/02/21 05:34:27;;;;;;;;;;;;;;;19.37;36.59;95953.63;10416356;28;2614;-53
2023/02/21 05:39:27;;;;;;;;;;;;;;;19.45;36.46;95953.09;10401736;28;3319;-52
2023/02/21 05:44:28;;;;;;;;;;;;;;;19.55;36.11;95952.31;10421834;28;3013;-52
2023/02/21 05:49:28;;;;;;;;;;;;;;;19.62;36.16;95947.59;10415693;28;2586;-55
2023/02/21 05:54:28;;;;;;;;;;;;;;;19.69;36.16;95943.66;10409186;28;3029;-53
2023/02/21 05:59:28;;;;;;;;;;;;;;;19.75;35.96;95949.69;10425257;28;3157;-50
2023/02/21 06:04:29;;;;;;;;;;;;;;;19.81;35.71;95948.63;10411950;28;2562;-55
2023/02/21 06:09:29;;;;;;;;;;;;;;;19.87;35.74;95951.00;10419192;28;3288;-55
2023/02/21 06:14:30;;;;;;;;;;;;;;;19.90;35.57;95947.84;10411664;28;2662;-53
2023/02/21 06:19:30;;;;;;;;;;;;;;;19.96;35.49;95959.16;10412802;28;3316;-51
2023/02/21 06:24:30;;;;;;;;;;;;;;;20.01;35.32;95962.56;10416833;28;2578;-54
2023/02/21 06:29:31;;;;;;;;;;;;;;;20.03;35.30;95963.09;10416145;28;3241;-54
2023/02/21 06:34:31;;;;;;;;;;;;;;;20.06;35.26;95967.84;10419915;28;3041;-54
2023/02/21 06:39:31;;;;;;;;;;;;;;;20.06;35.14;95965.22;10409723;28;3025;-56
2023/02/21 06:44:31;;;;;;;;;;;;;;;20.10;35.13;95975.97;10417647;28;3344;-55
2023/02/21 06:49:32;;;;;;;;;;;;;;;20.12;35.28;95985.19;10422285;28;2961;-54
2023/02/21 06:54:32;;;;;;;;;;;;;;;20.14;35.02;95985.72;10417631;28;3049;-53
2023/02/21 06:59:32;;;;;;;;;;;;;;;20.16;35.31;95996.78;10418275;28;3375;-55
2023/02/21 07:04:33;;;;;;;;;;;;;;;20.19;34.99;96006.81;10423538;28;3258;-53
2023/02/21 07:09:33;;;;;;;;;;;;;;;20.22;35.23;96008.91;10424450;28;3032;-53
2023/02/21 07:14:33;;;;;;;;;;;;;;;20.24;35.13;96009.44;10424444;28;2574;-55
2023/02/21 07:19:33;;;;;;;;;;;;;;;20.28;35.28;96010.47;10420016;28;3312;-56
2023/02/21 07:24:34;;;;;;;;;;;;;;;20.32;35.13;96009.97;10422480;28;2427;-54
2023/02/21 07:29:34;;;;;;;;;;;;;;;20.33;34.93;96004.44;10426680;28;2958;-53
2023/02/21 07:34:34;;;;;;;;;;;;;;;20.37;35.31;96008.09;10417739;28;3101;-53
2023/02/21 07:39:35;;;;;;;;;;;;;;;20.39;35.47;96007.81;10404449;28;3313;-56
2023/02/21 07:44:35;;;;;;;;;;;;;;;20.42;35.19;96005.47;10420059;28;2298;-53
2023/02/21 07:49:37;;;;;;;;;;;;;;;20.45;35.09;96009.41;10426064;28;3075;-54
2023/02/21 07:54:37;;;;;;;;;;;;;;;20.47;35.26;96015.19;10412654;28;3044;-55
2023/02/21 07:59:37;;;;;;;;;;;;;;;20.48;34.99;96028.09;10435190;28;3053;-53
2023/02/21 08:04:38;;;;;;;;;;;;;;;20.48;35.96;96020.22;10426237;28;3086;-56
2023/02/21 08:09:39;;;;;;;;;;;;;;;20.50;35.84;96030.47;10442040;28;3112;-51
2023/02/21 08:14:39;;;;;;;;;;;;;;;20.49;35.92;96026.25;10423290;28;3149;-52
2023/02/21 08:19:40;;;;;;;;;;;;;;;20.48;35.91;96025.47;10421046;28;2402;-54
2023/02/21 08:24:40;;;;;;;;;;;;;;;20.47;35.93;96021.25;10422390;28;2945;-53
2023/02/21 08:29:40;;;;;;;;;;;;;;;20.47;36.12;96028.34;10429087;28;3125;-50
2023/02/21 08:34:43;;;;;;;;;;;;;;;20.41;36.39;96030.22;10422599;28;2981;-52
2023/02/21 08:39:44;;;;;;;;;;;;;;;20.40;36.54;96033.91;10417324;28;3112;-54
2023/02/21 08:45:05;;;;;;;;;;;;;;;20.40;36.62;96033.13;10414895;28;2382;-53
2023/02/21 08:50:26;;;;;;;;;;;;;;;20.37;36.68;96034.44;10417027;28;2940;-54
2023/02/21 08:55:47;;;;;;;;;;;;;;;20.35;36.98;96030.47;10421176;28;3024;-52
2023/02/21 09:01:07;;;;;;;;;;;;;;;20.33;37.06;96033.38;10423958;28;2262;-50
2023/02/21 09:06:28;;;;;;;;;;;;;;;20.31;37.11;96030.22;10431851;28;3001;-52
2023/02/21 09:11:48;;;;;;;;;;;;;;;20.30;37.46;96025.22;10419254;28;3060;-53
2023/02/21 09:17:09;;;;;;;;;;;;;;;20.28;37.73;96026.28;10418888;28;3034;-53
2023/02/21 09:22:30;;;;;;;;;;;;;;;20.29;37.68;96027.06;10419062;28;2349;-52
2023/02/21 09:27:51;;;;;;;;;;;;;;;20.28;37.58;96022.84;10415549;28;3052;-54
2023/02/21 09:33:11;;;;;;;;;;;;;;;20.28;37.71;96030.75;10422891;28;3096;-51
2023/02/21 09:38:32;;;;;;;;;;;;;;;20.26;37.70;96032.84;10418884;28;2312;-51
2023/02/21 09:43:53;;;;;;;;;;;;;;;20.25;37.49;96034.72;10428786;28;3038;-52
2023/02/21 09:49:19;;;;;;;;;;;;;;;20.22;37.54;96021.28;10420388;28;2981;-51
2023/02/21 09:54:41;;;;;;;;;;;;;;;20.21;37.63;96012.59;10421153;28;3073;-52
2023/02/21 10:00:01;;;;;;;;;;;;;;;20.20;37.60;96015.47;10389757;28;2322;-51
2023/02/21 10:05:38;;;;;;;;;;;;;;;20.20;37.36;96012.84;10392365;28;2957;-53
2023/02/21 10:11:05;;;;;;;;;;;;;;;20.18;37.41;96015.72;10395880;28;2967;-53
2023/02/21 10:16:27;;;;;;;;;;;;;;;20.18;37.38;96014.94;10388664;28;2376;-54
2023/02/21 10:21:49;;;;;;;;;;;;;;;20.17;37.36;96014.13;10396365;28;2967;-54
2023/02/21 10:27:14;;;;;;;;;;;;;;;20.17;37.36;96014.13;10418750;28;2328;-55
2023/02/21 10:32:35;;;;;;;;;;;;;;;20.16;37.29;96027.56;10399982;28;3017;-53
2023/02/21 10:37:56;;;;;;;;;;;;;;;20.17;37.43;96029.91;10413679;28;2942;-51
2023/02/21 10:43:18;;;;;;;;;;;;;;;20.15;37.14;96029.41;10410703;28;2954;-51
2023/02/21 10:48:39;;;;;;;;;;;;;;;20.16;37.23;96015.19;10396324;28;2343;-52
2023/02/21 10:54:21;;;;;;;;;;;;;;;20.16;37.57;96020.47;10403391;28;2283;-51
2023/02/21 10:59:42;;;;;;;;;;;;;;;20.16;37.36;96011.78;10417816;28;2945;-50
2023/02/21 11:05:13;;;;;;;;;;;;;;;20.17;37.71;96008.09;10411114;28;2395;-51
2023/02/21 11:10:35;;;;;;;;;;;;;;;20.20;37.97;96002.31;10415901;28;3035;-50
2023/02/21 11:16:14;;;;;;;;;;;;;;;20.20;38.07;95997.84;10417645;28;2996;-51
2023/02/21 11:21:35;;;;;;;;;;;;;;;20.23;38.51;95986.81;10425838;28;2326;-48
2023/02/21 11:26:55;;;;;;;;;;;;;;;20.26;38.62;95977.56;10403103;28;2306;-50
2023/02/21 11:32:23;;;;;;;;;;;;;;;20.28;38.60;95964.94;10424965;28;2982;-50
2023/02/21 11:38:08;;;;;;;;;;;;;;;20.31;39.23;95967.03;10417205;28;2962;-46
2023/02/21 11:43:29;;;;;;;;;;;;;;;20.36;40.35;95951.22;10424484;28;2322;-50
2023/02/21 11:48:57;;;;;;;;;;;;;;;20.39;40.82;95945.44;10423324;28;3071;-51
2023/02/21 11:54:18;;;;;;;;;;;;;;;20.41;40.56;95942.53;10408329;28;2284;-47
2023/02/21 11:59:52;;;;;;;;;;;;;;;20.41;40.44;95935.44;10399876;28;3091;-47
2023/02/21 12:05:31;;;;;;;;;;;;;;;20.43;40.32;95921.97;10405237;28;3008;-47
2023/02/21 12:11:01;;;;;;;;;;;;;;;20.40;40.28;95923.34;10417191;28;2239;-48
2023/02/21 12:16:41;;;;;;;;;;;;;;;20.40;40.35;95909.38;10424884;28;3014;-49
2023/02/21 12:22:21;;;;;;;;;;;;;;;20.41;40.25;95898.56;10420356;28;2991;-50
2023/02/21 12:27:54;;;;;;;;;;;;;;;20.42;40.17;95896.72;10423966;28;7975;-47
2023/02/21 12:33:25;;;;;;;;;;;;;;;20.42;40.33;95883.56;10408290;28;3038;-48
2023/02/21 12:38:52;;;;;;;;;;;;;;;20.45;40.63;95883.81;10412128;28;2997;-50
2023/02/21 12:44:17;;;;;;;;;;;;;;;20.49;40.61;95878.78;10415681;28;3029;-49
2023/02/21 12:49:46;;;;;;;;;;;;;;;20.48;40.81;95864.84;10423664;28;2316;-47
2023/02/21 12:55:15;;;;;;;;;;;;;;;20.50;40.47;95856.66;10422761;28;2977;-48
2023/02/21 13:00:36;;;;;;;;;;;;;;;20.49;40.66;95853.25;10402801;28;2934;-47
2023/02/21 13:06:16;;;;;;;;;;;;;;;20.49;40.42;95847.97;10416103;28;3041;-48
2023/02/21 13:11:46;;;;;;;;;;;;;;;20.52;40.26;95839.56;10401529;28;2284;-48
2023/02/21 13:17:11;;;;;;;;;;;;;;;20.53;39.97;95821.88;10415977;28;2331;-49
2023/02/21 13:28:27;;;;;;;;;;;;;;;20.61;39.94;95811.56;10413111;28;2230;-49
2023/02/21 13:34:05;;;;;;;;;;;;;;;20.68;39.77;95798.91;10405958;28;2282;-50
2023/02/21 13:39:08;;;;;;;;;;;;;;;20.75;39.37;95791.47;10417008;28;3053;-47
2023/02/21 13:44:30;;;;;;;;;;;;;;;20.81;39.53;95786.97;10412567;28;2989;-48
2023/02/21 13:49:41;;;;;;;;;;;;;;;20.83;39.41;95780.38;10417386;28;2302;-46
2023/02/21 13:55:00;;;;;;;;;;;;;;;20.86;39.37;95777.16;10414800;28;3045;-47
2023/02/21 14:00:19;;;;;;;;;;;;;;;20.89;39.36;95768.72;10412826;28;3037;-48
2023/02/21 14:05:43;;;;;;;;;;;;;;;20.94;39.17;95758.13;10415414;28;2974;-49
2023/02/21 14:10:44;;;;;;;;;;;;;;;21.00;38.94;95759.66;10425186;28;3038;-47
2023/02/21 14:15:45;;;;;;;;;;;;;;;20.99;38.86;95747.56;10401333;28;3107;-49
2023/02/21 14:20:47;;;;;;;;;;;;;;;20.97;39.11;95746.28;10416953;28;3101;-49
2023/02/21 14:25:54;;;;;;;;;;;;;;;20.95;38.80;95736.00;10451826;28;3054;-52
2023/02/21 14:31:00;;;;;;;;;;;;;;;20.89;38.66;95731.84;10470930;28;2672;-48
2023/02/21 14:36:05;;;;;;;;;;;;;;;20.86;38.73;95731.59;10459993;28;2333;-50
2023/02/21 14:41:09;;;;;;;;;;;;;;;20.80;39.06;95730.06;10446035;28;3028;-48
2023/02/21 14:46:28;;;;;;;;;;;;;;;20.77;38.84;95720.84;10471594;28;3319;-50
2023/02/21 14:51:29;;;;;;;;;;;;;;;20.73;38.74;95717.19;10472192;28;3020;-50
2023/02/21 14:56:48;;;;;;;;;;;;;;;20.67;38.97;95699.84;10467584;28;3005;-51
2023/02/21 15:02:00;;;;;;;;;;;;;;;20.65;38.97;95695.94;10464092;28;2222;-51
2023/02/21 15:07:41;;;;;;;;;;;;;;;20.62;39.23;95694.63;10465526;28;3018;-50
2023/02/21 15:12:43;;;;;;;;;;;;;;;20.62;39.00;95684.09;10455678;28;2301;-49
2023/02/21 15:17:44;;;;;;;;;;;;;;;20.61;38.92;95684.38;10455805;28;2219;-49
2023/02/21 15:22:44;;;;;;;;;;;;;;;20.61;39.42;95677.25;10432796;28;2357;-49
2023/02/21 15:28:06;;;;;;;;;;;;;;;20.61;39.65;95679.13;10415039;28;3080;-51
2023/02/21 15:33:07;;;;;;;;;;;;;;;20.61;40.03;95671.22;10426287;28;3072;-49
2023/02/21 15:38:26;;;;;;;;;;;;;;;20.61;39.85;95661.44;10410673;28;2325;-52
2023/02/21 15:43:38;;;;;;;;;;;;;;;20.61;39.86;95664.09;10405387;28;3085;-50
2023/02/21 15:48:38;;;;;;;;;;;;;;;20.60;40.03;95659.91;10422927;28;3041;-50
2023/02/21 15:53:39;;;;;;;;;;;;;;;20.58;39.85;95648.84;10423819;28;3042;-48
2023/02/21 15:58:39;;;;;;;;;;;;;;;20.60;39.65;95653.84;10425949;28;3033;-50
2023/02/21 16:03:40;;;;;;;;;;;;;;;20.58;39.87;95648.84;10423756;28;3034;-52
2023/02/21 16:08:49;;;;;;;;;;;;;;;20.57;39.64;95644.63;10405237;28;2407;-49
2023/02/21 16:13:49;;;;;;;;;;;;;;;20.57;39.61;95643.84;10426828;28;2383;-49
2023/02/21 16:18:53;;;;;;;;;;;;;;;20.56;39.39;95635.16;10423205;28;2306;-48
2023/02/21 16:23:53;;;;;;;;;;;;;;;20.55;39.42;95641.47;10429787;28;2299;-50
2023/02/21 16:28:57;;;;;;;;;;;;;;;20.53;39.33;95648.88;10453887;28;3308;-52
2023/02/21 16:33:57;;;;;;;;;;;;;;;20.52;39.37;95643.88;10468876;28;2369;-52
2023/02/21 16:38:57;;;;;;;;;;;;;;;20.53;39.19;95648.88;10458200;28;2337;-50
2023/02/21 16:43:58;;;;;;;;;;;;;;;20.52;39.04;95639.41;10456706;28;2302;-49
2023/02/21 16:49:00;;;;;;;;;;;;;;;20.53;38.97;95637.56;10462925;28;2280;-52
2023/02/21 16:54:04;;;;;;;;;;;;;;;20.51;38.87;95637.84;10457750;28;2449;-54
2023/02/21 16:59:15;;;;;;;;;;;;;;;20.52;38.80;95636.00;10454447;28;3169;-52
2023/02/21 17:04:16;;;;;;;;;;;;;;;20.51;38.70;95637.84;10470051;28;2942;-48
2023/02/21 17:09:20;;;;;;;;;;;;;;;20.51;38.80;95644.94;10458566;28;3153;-53
2023/02/21 17:14:21;;;;;;;;;;;;;;;20.50;38.66;95648.66;10457277;28;2289;-48
2023/02/21 17:19:25;;;;;;;;;;;;;;;20.49;38.63;95655.75;10453391;28;3029;-48
2023/02/21 17:24:30;;;;;;;;;;;;;;;20.49;38.54;95652.31;10431029;28;3051;-52
2023/02/21 17:29:36;;;;;;;;;;;;;;;20.47;38.79;95654.44;10415006;28;2982;-48
2023/02/21 17:34:38;;;;;;;;;;;;;;;20.47;38.68;95660.50;10424673;28;2966;-51
2023/02/21 17:39:38;;;;;;;;;;;;;;;20.44;38.69;95661.06;10417417;28;3208;-49
2023/02/21 17:44:46;;;;;;;;;;;;;;;20.42;38.52;95652.66;10410272;28;2998;-51
2023/02/21 17:49:47;;;;;;;;;;;;;;;20.41;38.72;95658.97;10412917;28;2402;-49
2023/02/21 17:54:47;;;;;;;;;;;;;;;20.40;38.64;95656.63;10408041;28;2287;-52
2023/02/21 17:59:48;;;;;;;;;;;;;;;20.38;38.62;95643.72;10437380;28;3193;-52
2023/02/21 18:04:50;;;;;;;;;;;;;;;20.39;38.71;95647.13;10417686;28;3032;-48
2023/02/21 18:09:51;;;;;;;;;;;;;;;20.39;38.56;95649.78;10423415;28;3029;-51
2023/02/21 18:14:52;;;;;;;;;;;;;;;20.38;38.70;95650.84;10412750;28;3311;-51
2023/02/21 18:19:53;;;;;;;;;;;;;;;20.38;38.47;95648.22;10422835;28;2974;-47
2023/02/21 18:24:53;;;;;;;;;;;;;;;20.36;38.50;95648.47;10454634;28;3033;-49
2023/02/21 18:30:14;;;;;;;;;;;;;;;20.36;38.78;95640.56;10464740;28;2955;-52
2023/02/21 18:35:15;;;;;;;;;;;;;;;20.35;38.70;95641.66;10471683;28;2272;-50
2023/02/21 18:40:15;;;;;;;;;;;;;;;20.35;38.96;95646.91;10465855;28;2993;-48
2023/02/21 18:45:26;;;;;;;;;;;;;;;20.36;39.13;95642.44;10468734;28;3138;-49
2023/02/21 18:50:26;;;;;;;;;;;;;;;20.36;39.23;95647.69;10446077;28;2988;-51
2023/02/21 18:55:26;;;;;;;;;;;;;;;20.36;39.60;95642.44;10460108;28;2902;-50
2023/02/21 19:00:27;;;;;;;;;;;;;;;20.35;39.55;95640.84;10460790;28;3081;-51
2023/02/21 19:05:28;;;;;;;;;;;;;;;20.35;39.61;95636.38;10466142;28;3039;-48
2023/02/21 19:10:29;;;;;;;;;;;;;;;20.35;39.59;95646.13;10473013;28;3188;-49
2023/02/21 19:15:33;;;;;;;;;;;;;;;20.33;39.73;95635.88;10476268;28;2291;-50
2023/02/21 19:20:33;;;;;;;;;;;;;;;20.33;39.52;95642.97;10456529;28;3221;-50
2023/02/21 19:25:33;;;;;;;;;;;;;;;20.31;39.61;95642.47;10428122;28;2953;-49
2023/02/21 19:30:35;;;;;;;;;;;;;;;20.29;39.74;95642.75;10418119;28;3060;-50
2023/02/21 19:35:36;;;;;;;;;;;;;;;20.27;39.59;95642.22;10439550;28;3021;-49
2023/02/21 19:40:37;;;;;;;;;;;;;;;20.26;39.58;95649.34;10420928;28;3041;-48
2023/02/21 19:45:37;;;;;;;;;;;;;;;20.25;39.40;95649.63;10415223;28;2977;-48
2023/02/21 19:50:37;;;;;;;;;;;;;;;20.22;39.49;95640.41;10401198;28;3002;-51
2023/02/21 19:55:39;;;;;;;;;;;;;;;20.22;39.43;95642.25;10398582;28;2990;-50
2023/02/21 20:00:42;;;;;;;;;;;;;;;20.22;39.22;95637.00;10415923;28;2295;-49
2023/02/21 20:05:54;;;;;;;;;;;;;;;20.22;39.89;95632.53;10405692;28;3085;-45
2023/02/21 20:10:55;;;;;;;;;;;;;;;20.24;40.43;95634.88;10403645;28;2902;-51
2023/02/21 20:16:05;;;;;;;;;;;;;;;20.30;40.84;95633.00;10417294;28;3024;-53
2023/02/21 20:21:22;;;;;;;;;;;;;;;20.36;41.16;95630.03;10417206;28;2253;-51
2023/02/21 20:26:25;;;;;;;;;;;;;;;20.42;41.46;95631.59;10416617;28;2930;-53
2023/02/21 20:31:31;;;;;;;;;;;;;;;20.48;41.16;95629.72;10412154;28;3037;-52
2023/02/21 20:36:33;;;;;;;;;;;;;;;20.52;40.97;95625.47;10412628;28;2981;-52
2023/02/21 20:41:41;;;;;;;;;;;;;;;20.57;40.96;95638.56;10414321;28;2302;-50
2023/02/21 20:46:42;;;;;;;;;;;;;;;20.60;40.91;95630.94;10422802;28;3057;-51
2023/02/21 20:51:43;;;;;;;;;;;;;;;20.60;40.75;95628.28;10420973;28;2294;-51
2023/02/21 20:56:43;;;;;;;;;;;;;;;20.63;40.67;95629.59;10425569;28;2366;-55
2023/02/21 21:01:47;;;;;;;;;;;;;;;20.63;40.40;95627.72;10416440;28;3037;-52
2023/02/21 21:06:47;;;;;;;;;;;;;;;20.63;40.61;95619.06;10406678;28;3024;-53
2023/02/21 21:11:47;;;;;;;;;;;;;;;20.62;40.11;95623.53;10419518;28;3002;-54
2023/02/21 21:16:49;;;;;;;;;;;;;;;20.58;40.18;95619.09;10406836;28;2286;-54
2023/02/21 21:21:50;;;;;;;;;;;;;;;20.55;40.46;95620.41;10425179;28;2248;-54
2023/02/21 21:26:51;;;;;;;;;;;;;;;20.54;40.61;95621.50;10429834;28;2311;-53
2023/02/21 21:31:53;;;;;;;;;;;;;;;20.51;40.46;95619.41;10415069;28;3607;-50
2023/02/21 21:36:59;;;;;;;;;;;;;;;20.49;40.55;95618.09;10425840;28;2418;-54
2023/02/21 21:42:04;;;;;;;;;;;;;;;20.46;40.73;95610.75;10423627;28;3010;-54
2023/02/21 21:47:05;;;;;;;;;;;;;;;20.41;40.47;95608.94;10424118;28;2987;-53
2023/02/21 21:52:05;;;;;;;;;;;;;;;20.39;40.36;95616.34;10421642;28;3449;-54
2023/02/21 21:57:05;;;;;;;;;;;;;;;20.37;40.30;95609.78;10426185;28;2298;-52
2023/02/21 22:02:09;;;;;;;;;;;;;;;20.35;40.42;95611.91;10422603;28;2287;-52
2023/02/21 22:07:10;;;;;;;;;;;;;;;20.33;40.10;95614.81;10422265;28;2962;-52
2023/02/21 22:12:14;;;;;;;;;;;;;;;20.30;40.27;95614.59;10407314;28;3209;-54
2023/02/21 22:17:15;;;;;;;;;;;;;;;20.26;39.97;95617.75;10408498;28;2322;-54
2023/02/21 22:22:16;;;;;;;;;;;;;;;20.24;40.24;95613.81;10418053;28;2225;-51
2023/02/21 22:27:17;;;;;;;;;;;;;;;20.22;39.88;95610.66;10428917;28;3014;-53
2023/02/21 22:32:19;;;;;;;;;;;;;;;20.20;40.04;95610.16;10409655;28;2955;-54
2023/02/21 22:37:22;;;;;;;;;;;;;;;20.19;39.74;95606.75;10394405;28;2299;-54
2023/02/21 22:42:27;;;;;;;;;;;;;;;20.18;39.73;95604.34;10392399;28;2274;-52
2023/02/21 22:47:32;;;;;;;;;;;;;;;20.16;39.58;95595.94;10423285;28;3046;-52
2023/02/21 22:52:32;;;;;;;;;;;;;;;20.15;39.70;95602.28;10416307;28;3112;-51
2023/02/21 22:57:34;;;;;;;;;;;;;;;20.13;39.41;95592.00;10403807;28;2354;-54
2023/02/21 23:02:35;;;;;;;;;;;;;;;20.10;39.36;95592.56;10413691;28;3031;-52
2023/02/21 23:07:36;;;;;;;;;;;;;;;20.09;39.39;95590.97;10414144;28;2319;-53
2023/02/21 23:12:37;;;;;;;;;;;;;;;20.07;39.28;95585.22;10422083;28;2998;-54
2023/02/21 23:17:38;;;;;;;;;;;;;;;20.07;39.22;95585.22;10420036;28;2367;-53
2023/02/21 23:22:48;;;;;;;;;;;;;;;20.05;39.19;95583.94;10427005;28;2449;-52
2023/02/21 23:27:49;;;;;;;;;;;;;;;20.04;39.05;95577.09;10421575;28;2381;-54
2023/02/21 23:32:51;;;;;;;;;;;;;;;20.02;39.08;95579.22;10423907;28;3010;-54
2023/02/21 23:37:53;;;;;;;;;;;;;;;20.00;39.11;95573.44;10425654;28;2974;-52
2023/02/21 23:42:53;;;;;;;;;;;;;;;20.00;38.96;95583.97;10420441;28;3078;-51
2023/02/21 23:47:53;;;;;;;;;;;;;;;19.98;39.08;95578.97;10431709;28;2982;-54
2023/02/21 23:52:54;;;;;;;;;;;;;;;19.97;38.99;95581.88;10420602;28;3010;-52
2023/02/21 23:57:58;;;;;;;;;;;;;;;19.97;38.90;95579.25;10426160;28;2223;-52
